sensor_id;sensor_type;location;lat;lon;timestamp;temperature;humidity
18103;DHT22;9178;51.120;6.192;2022-12-29T00:00:54;11.10;99.90
18103;DHT22;9178;51.120;6.192;2022-12-29T00:03:21;11.10;99.90
18103;DHT22;9178;51.120;6.192;2022-12-29T00:05:54;11.10;99.90
18103;DHT22;9178;51.120;6.192;2022-12-29T00:08:21;11.10;99.90
18103;DHT22;9178;51.120;6.192;2022-12-29T00:11:06;11.10;99.90
18103;DHT22;9178;51.120;6.192;2022-12-29T00:13:34;11.10;99.90
18103;DHT22;9178;51.120;6.192;2022-12-29T00:16:18;11.10;99.90
18103;DHT22;9178;51.120;6.192;2022-12-29T00:18:45;11.20;99.90
18103;DHT22;9178;51.120;6.192;2022-12-29T00:21:13;11.10;99.90
18103;DHT22;9178;51.120;6.192;2022-12-29T00:23:58;11.20;99.90
18103;DHT22;9178;51.120;6.192;2022-12-29T00:26:44;11.10;99.90
18103;DHT22;9178;51.120;6.192;2022-12-29T00:29:29;11.20;99.90
18103;DHT22;9178;51.120;6.192;2022-12-29T00:32:13;11.20;99.90
18103;DHT22;9178;51.120;6.192;2022-12-29T00:34:57;11.20;99.90
18103;DHT22;9178;51.120;6.192;2022-12-29T00:37:37;11.30;99.90
18103;DHT22;9178;51.120;6.192;2022-12-29T00:40:24;11.40;99.90
18103;DHT22;9178;51.120;6.192;2022-12-29T00:43:17;11.30;99.90
18103;DHT22;9178;51.120;6.192;2022-12-29T00:46:02;11.30;99.90
18103;DHT22;9178;51.120;6.192;2022-12-29T00:48:29;11.40;99.90
18103;DHT22;9178;51.120;6.192;2022-12-29T00:51:13;11.40;99.90
18103;DHT22;9178;51.120;6.192;2022-12-29T00:53:42;11.50;99.90
18103;DHT22;9178;51.120;6.192;2022-12-29T00:56:09;11.50;99.90
18103;DHT22;9178;51.120;6.192;2022-12-29T00:58:38;11.50;99.90
18103;DHT22;9178;51.120;6.192;2022-12-29T01:01:06;11.50;99.90
18103;DHT22;9178;51.120;6.192;2022-12-29T01:03:33;11.50;99.90
18103;DHT22;9178;51.120;6.192;2022-12-29T01:06:02;11.50;99.90
18103;DHT22;9178;51.120;6.192;2022-12-29T01:08:29;11.50;99.90
18103;DHT22;9178;51.120;6.192;2022-12-29T01:10:59;11.50;99.90
18103;DHT22;9178;51.120;6.192;2022-12-29T01:13:25;11.50;99.90
18103;DHT22;9178;51.120;6.192;2022-12-29T01:15:55;11.50;99.90
18103;DHT22;9178;51.120;6.192;2022-12-29T01:18:22;11.50;99.90
18103;DHT22;9178;51.120;6.192;2022-12-29T01:20:49;11.50;99.90
18103;DHT22;9178;51.120;6.192;2022-12-29T01:23:16;11.50;99.90
18103;DHT22;9178;51.120;6.192;2022-12-29T01:25:43;11.50;99.90
18103;DHT22;9178;51.120;6.192;2022-12-29T01:28:10;11.50;99.90
18103;DHT22;9178;51.120;6.192;2022-12-29T01:30:37;11.50;99.90
18103;DHT22;9178;51.120;6.192;2022-12-29T01:33:05;11.50;99.90
18103;DHT22;9178;51.120;6.192;2022-12-29T01:35:32;11.50;99.90
18103;DHT22;9178;51.120;6.192;2022-12-29T01:37:58;11.50;99.90
18103;DHT22;9178;51.120;6.192;2022-12-29T01:40:25;11.50;99.90
18103;DHT22;9178;51.120;6.192;2022-12-29T01:42:53;11.50;99.90
18103;DHT22;9178;51.120;6.192;2022-12-29T01:45:20;11.40;99.90
18103;DHT22;9178;51.120;6.192;2022-12-29T01:47:50;11.40;99.90
18103;DHT22;9178;51.120;6.192;2022-12-29T01:50:22;11.40;99.90
18103;DHT22;9178;51.120;6.192;2022-12-29T01:52:55;11.40;99.90
18103;DHT22;9178;51.120;6.192;2022-12-29T01:55:24;11.40;99.90
18103;DHT22;9178;51.120;6.192;2022-12-29T01:57:53;11.40;99.90
18103;DHT22;9178;51.120;6.192;2022-12-29T02:00:22;11.40;99.90
18103;DHT22;9178;51.120;6.192;2022-12-29T02:02:51;11.40;99.90
18103;DHT22;9178;51.120;6.192;2022-12-29T02:05:25;11.40;99.90
18103;DHT22;9178;51.120;6.192;2022-12-29T02:07:54;11.40;99.90
18103;DHT22;9178;51.120;6.192;2022-12-29T02:10:22;11.40;99.90
18103;DHT22;9178;51.120;6.192;2022-12-29T02:12:49;11.50;99.90
18103;DHT22;9178;51.120;6.192;2022-12-29T02:15:17;11.50;99.90
18103;DHT22;9178;51.120;6.192;2022-12-29T02:18:01;11.50;99.90
18103;DHT22;9178;51.120;6.192;2022-12-29T02:20:53;11.50;99.90
18103;DHT22;9178;51.120;6.192;2022-12-29T02:23:59;11.50;99.90
18103;DHT22;9178;51.120;6.192;2022-12-29T02:26:49;11.50;99.90
18103;DHT22;9178;51.120;6.192;2022-12-29T02:29:54;11.50;99.90
18103;DHT22;9178;51.120;6.192;2022-12-29T02:32:32;11.60;99.90
18103;DHT22;9178;51.120;6.192;2022-12-29T02:35:09;11.50;99.90
18103;DHT22;9178;51.120;6.192;2022-12-29T02:37:44;11.60;99.90
18103;DHT22;9178;51.120;6.192;2022-12-29T02:40:20;11.60;99.90
18103;DHT22;9178;51.120;6.192;2022-12-29T02:42:51;11.60;99.90
18103;DHT22;9178;51.120;6.192;2022-12-29T02:45:22;11.50;99.90
18103;DHT22;9178;51.120;6.192;2022-12-29T02:47:58;11.50;99.90
18103;DHT22;9178;51.120;6.192;2022-12-29T02:50:35;11.60;99.90
18103;DHT22;9178;51.120;6.192;2022-12-29T02:53:05;11.50;99.90
18103;DHT22;9178;51.120;6.192;2022-12-29T02:55:33;11.50;99.90
18103;DHT22;9178;51.120;6.192;2022-12-29T02:58:19;11.50;99.90
18103;DHT22;9178;51.120;6.192;2022-12-29T03:00:57;11.50;99.90
18103;DHT22;9178;51.120;6.192;2022-12-29T03:03:42;11.50;99.90
18103;DHT22;9178;51.120;6.192;2022-12-29T03:06:23;11.50;99.90
18103;DHT22;9178;51.120;6.192;2022-12-29T03:09:01;11.40;99.90
18103;DHT22;9178;51.120;6.192;2022-12-29T03:11:35;11.40;99.90
18103;DHT22;9178;51.120;6.192;2022-12-29T03:14:28;11.40;99.90
18103;DHT22;9178;51.120;6.192;2022-12-29T03:17:24;11.40;99.90
18103;DHT22;9178;51.120;6.192;2022-12-29T03:19:59;11.30;99.90
18103;DHT22;9178;51.120;6.192;2022-12-29T03:22:30;11.30;99.90
18103;DHT22;9178;51.120;6.192;2022-12-29T03:25:03;11.30;99.90
18103;DHT22;9178;51.120;6.192;2022-12-29T03:27:32;11.30;99.90
18103;DHT22;9178;51.120;6.192;2022-12-29T03:30:03;11.30;99.90
18103;DHT22;9178;51.120;6.192;2022-12-29T03:32:33;11.40;99.90
18103;DHT22;9178;51.120;6.192;2022-12-29T03:35:03;11.40;99.90
18103;DHT22;9178;51.120;6.192;2022-12-29T03:37:35;11.40;99.90
18103;DHT22;9178;51.120;6.192;2022-12-29T03:40:03;11.50;99.90
18103;DHT22;9178;51.120;6.192;2022-12-29T03:42:33;11.40;99.90
18103;DHT22;9178;51.120;6.192;2022-12-29T03:45:01;11.50;99.90
18103;DHT22;9178;51.120;6.192;2022-12-29T03:47:30;11.50;99.90
18103;DHT22;9178;51.120;6.192;2022-12-29T03:49:57;11.50;99.90
18103;DHT22;9178;51.120;6.192;2022-12-29T03:52:25;11.50;99.90
18103;DHT22;9178;51.120;6.192;2022-12-29T03:54:52;11.50;99.90
18103;DHT22;9178;51.120;6.192;2022-12-29T03:57:19;11.50;99.90
18103;DHT22;9178;51.120;6.192;2022-12-29T03:59:46;11.60;99.90
18103;DHT22;9178;51.120;6.192;2022-12-29T04:02:13;11.60;99.90
18103;DHT22;9178;51.120;6.192;2022-12-29T04:04:40;11.60;99.90
18103;DHT22;9178;51.120;6.192;2022-12-29T04:07:07;11.60;99.90
18103;DHT22;9178;51.120;6.192;2022-12-29T04:09:35;11.60;99.90
18103;DHT22;9178;51.120;6.192;2022-12-29T04:12:01;11.50;99.90
18103;DHT22;9178;51.120;6.192;2022-12-29T04:14:28;11.50;99.90
18103;DHT22;9178;51.120;6.192;2022-12-29T04:16:55;11.50;99.90
18103;DHT22;9178;51.120;6.192;2022-12-29T04:19:22;11.50;99.90
18103;DHT22;9178;51.120;6.192;2022-12-29T04:21:49;11.50;99.90
18103;DHT22;9178;51.120;6.192;2022-12-29T04:24:15;11.50;99.90
18103;DHT22;9178;51.120;6.192;2022-12-29T04:26:44;11.50;99.90
18103;DHT22;9178;51.120;6.192;2022-12-29T04:29:10;11.60;99.90
18103;DHT22;9178;51.120;6.192;2022-12-29T04:31:37;11.60;99.90
18103;DHT22;9178;51.120;6.192;2022-12-29T04:34:04;11.60;99.90
18103;DHT22;9178;51.120;6.192;2022-12-29T04:36:31;11.60;99.90
18103;DHT22;9178;51.120;6.192;2022-12-29T04:38:57;11.70;99.90
18103;DHT22;9178;51.120;6.192;2022-12-29T04:41:24;11.70;99.90
18103;DHT22;9178;51.120;6.192;2022-12-29T04:43:53;11.70;99.90
18103;DHT22;9178;51.120;6.192;2022-12-29T04:46:20;11.70;99.90
18103;DHT22;9178;51.120;6.192;2022-12-29T04:48:47;11.70;99.90
18103;DHT22;9178;51.120;6.192;2022-12-29T04:51:14;11.70;99.90
18103;DHT22;9178;51.120;6.192;2022-12-29T04:53:40;11.70;99.90
18103;DHT22;9178;51.120;6.192;2022-12-29T04:56:07;11.70;99.90
18103;DHT22;9178;51.120;6.192;2022-12-29T04:58:34;11.70;99.90
18103;DHT22;9178;51.120;6.192;2022-12-29T05:01:03;11.70;99.90
18103;DHT22;9178;51.120;6.192;2022-12-29T05:03:29;11.70;99.90
18103;DHT22;9178;51.120;6.192;2022-12-29T05:05:57;11.70;99.90
18103;DHT22;9178;51.120;6.192;2022-12-29T05:08:24;11.70;99.90
18103;DHT22;9178;51.120;6.192;2022-12-29T05:10:51;11.70;99.90
18103;DHT22;9178;51.120;6.192;2022-12-29T05:13:18;11.70;99.90
18103;DHT22;9178;51.120;6.192;2022-12-29T05:15:48;11.70;99.90
18103;DHT22;9178;51.120;6.192;2022-12-29T05:18:17;11.70;99.90
18103;DHT22;9178;51.120;6.192;2022-12-29T05:20:44;11.80;99.90
18103;DHT22;9178;51.120;6.192;2022-12-29T05:23:11;11.70;99.90
18103;DHT22;9178;51.120;6.192;2022-12-29T05:25:37;11.70;99.90
18103;DHT22;9178;51.120;6.192;2022-12-29T05:28:04;11.60;99.90
18103;DHT22;9178;51.120;6.192;2022-12-29T05:30:31;11.50;99.90
18103;DHT22;9178;51.120;6.192;2022-12-29T05:32:58;11.50;99.90
18103;DHT22;9178;51.120;6.192;2022-12-29T05:35:26;11.50;99.90
18103;DHT22;9178;51.120;6.192;2022-12-29T05:37:53;11.50;99.90
18103;DHT22;9178;51.120;6.192;2022-12-29T05:40:19;11.50;99.90
18103;DHT22;9178;51.120;6.192;2022-12-29T05:42:46;11.40;99.90
18103;DHT22;9178;51.120;6.192;2022-12-29T05:45:13;11.30;99.90
18103;DHT22;9178;51.120;6.192;2022-12-29T05:47:39;11.30;99.90
18103;DHT22;9178;51.120;6.192;2022-12-29T05:50:07;11.30;99.90
18103;DHT22;9178;51.120;6.192;2022-12-29T05:52:35;11.30;99.90
18103;DHT22;9178;51.120;6.192;2022-12-29T05:55:02;11.20;99.90
18103;DHT22;9178;51.120;6.192;2022-12-29T05:57:29;11.30;99.90
18103;DHT22;9178;51.120;6.192;2022-12-29T05:59:55;11.30;99.90
18103;DHT22;9178;51.120;6.192;2022-12-29T06:02:22;11.20;99.90
18103;DHT22;9178;51.120;6.192;2022-12-29T06:04:49;11.20;99.90
18103;DHT22;9178;51.120;6.192;2022-12-29T06:07:16;11.10;99.90
18103;DHT22;9178;51.120;6.192;2022-12-29T06:09:44;11.10;99.90
18103;DHT22;9178;51.120;6.192;2022-12-29T06:12:10;11.10;99.90
18103;DHT22;9178;51.120;6.192;2022-12-29T06:14:37;11.10;99.90
18103;DHT22;9178;51.120;6.192;2022-12-29T06:17:04;11.10;99.90
18103;DHT22;9178;51.120;6.192;2022-12-29T06:19:32;11.10;99.90
18103;DHT22;9178;51.120;6.192;2022-12-29T06:21:58;11.10;99.90
18103;DHT22;9178;51.120;6.192;2022-12-29T06:24:25;11.20;99.90
18103;DHT22;9178;51.120;6.192;2022-12-29T06:26:53;11.10;99.90
18103;DHT22;9178;51.120;6.192;2022-12-29T06:29:20;11.20;99.90
18103;DHT22;9178;51.120;6.192;2022-12-29T06:31:47;11.20;99.90
18103;DHT22;9178;51.120;6.192;2022-12-29T06:34:14;11.20;99.90
18103;DHT22;9178;51.120;6.192;2022-12-29T06:36:41;11.20;99.90
18103;DHT22;9178;51.120;6.192;2022-12-29T06:39:07;11.20;99.90
18103;DHT22;9178;51.120;6.192;2022-12-29T06:41:34;11.20;99.90
18103;DHT22;9178;51.120;6.192;2022-12-29T06:44:02;11.10;99.90
18103;DHT22;9178;51.120;6.192;2022-12-29T06:46:29;11.10;99.90
18103;DHT22;9178;51.120;6.192;2022-12-29T06:48:56;11.10;99.90
18103;DHT22;9178;51.120;6.192;2022-12-29T06:51:22;11.10;99.90
18103;DHT22;9178;51.120;6.192;2022-12-29T06:53:49;11.00;99.90
18103;DHT22;9178;51.120;6.192;2022-12-29T06:56:16;11.00;99.90
18103;DHT22;9178;51.120;6.192;2022-12-29T06:58:43;10.90;99.90
18103;DHT22;9178;51.120;6.192;2022-12-29T07:01:11;10.90;99.90
18103;DHT22;9178;51.120;6.192;2022-12-29T07:03:38;10.90;99.90
18103;DHT22;9178;51.120;6.192;2022-12-29T07:06:07;10.90;99.90
18103;DHT22;9178;51.120;6.192;2022-12-29T07:08:34;10.80;99.90
18103;DHT22;9178;51.120;6.192;2022-12-29T07:11:00;10.80;99.90
18103;DHT22;9178;51.120;6.192;2022-12-29T07:13:27;10.80;99.90
18103;DHT22;9178;51.120;6.192;2022-12-29T07:15:54;10.90;99.90
18103;DHT22;9178;51.120;6.192;2022-12-29T07:18:22;10.90;99.90
18103;DHT22;9178;51.120;6.192;2022-12-29T07:20:49;10.90;99.90
18103;DHT22;9178;51.120;6.192;2022-12-29T07:23:16;10.80;99.90
18103;DHT22;9178;51.120;6.192;2022-12-29T07:25:42;10.90;99.90
18103;DHT22;9178;51.120;6.192;2022-12-29T07:28:09;10.80;99.90
18103;DHT22;9178;51.120;6.192;2022-12-29T07:30:37;10.90;99.90
18103;DHT22;9178;51.120;6.192;2022-12-29T07:33:04;10.90;99.90
18103;DHT22;9178;51.120;6.192;2022-12-29T07:35:33;10.90;99.90
18103;DHT22;9178;51.120;6.192;2022-12-29T07:38:00;10.80;99.90
18103;DHT22;9178;51.120;6.192;2022-12-29T07:40:26;10.80;99.90
18103;DHT22;9178;51.120;6.192;2022-12-29T07:42:53;10.90;99.90
18103;DHT22;9178;51.120;6.192;2022-12-29T07:45:20;10.90;99.90
18103;DHT22;9178;51.120;6.192;2022-12-29T07:47:48;10.80;99.90
18103;DHT22;9178;51.120;6.192;2022-12-29T07:50:15;10.80;99.90
18103;DHT22;9178;51.120;6.192;2022-12-29T07:52:43;10.70;99.90
18103;DHT22;9178;51.120;6.192;2022-12-29T07:55:10;10.70;99.90
18103;DHT22;9178;51.120;6.192;2022-12-29T07:57:37;10.70;99.90
18103;DHT22;9178;51.120;6.192;2022-12-29T08:00:04;10.60;99.90
18103;DHT22;9178;51.120;6.192;2022-12-29T08:02:31;10.60;99.90
18103;DHT22;9178;51.120;6.192;2022-12-29T08:04:58;10.60;99.90
18103;DHT22;9178;51.120;6.192;2022-12-29T08:07:25;10.70;99.90
18103;DHT22;9178;51.120;6.192;2022-12-29T08:09:53;10.70;99.90
18103;DHT22;9178;51.120;6.192;2022-12-29T08:12:19;10.60;99.90
18103;DHT22;9178;51.120;6.192;2022-12-29T08:14:46;10.60;99.90
18103;DHT22;9178;51.120;6.192;2022-12-29T08:17:13;10.50;99.90
18103;DHT22;9178;51.120;6.192;2022-12-29T08:19:40;10.50;99.90
18103;DHT22;9178;51.120;6.192;2022-12-29T08:22:08;10.50;99.90
18103;DHT22;9178;51.120;6.192;2022-12-29T08:24:34;10.50;99.90
18103;DHT22;9178;51.120;6.192;2022-12-29T08:27:02;10.50;99.90
18103;DHT22;9178;51.120;6.192;2022-12-29T08:29:29;10.50;99.90
18103;DHT22;9178;51.120;6.192;2022-12-29T08:31:56;10.60;99.90
18103;DHT22;9178;51.120;6.192;2022-12-29T08:34:23;10.50;99.90
18103;DHT22;9178;51.120;6.192;2022-12-29T08:36:50;10.50;99.90
18103;DHT22;9178;51.120;6.192;2022-12-29T08:39:16;10.50;99.90
18103;DHT22;9178;51.120;6.192;2022-12-29T08:41:43;10.50;99.90
18103;DHT22;9178;51.120;6.192;2022-12-29T08:44:11;10.40;99.90
18103;DHT22;9178;51.120;6.192;2022-12-29T08:46:38;10.40;99.90
18103;DHT22;9178;51.120;6.192;2022-12-29T08:49:05;10.40;99.90
18103;DHT22;9178;51.120;6.192;2022-12-29T08:51:32;10.40;99.90
18103;DHT22;9178;51.120;6.192;2022-12-29T08:53:59;10.40;99.90
18103;DHT22;9178;51.120;6.192;2022-12-29T08:56:25;10.50;99.90
18103;DHT22;9178;51.120;6.192;2022-12-29T08:58:52;10.60;99.90
18103;DHT22;9178;51.120;6.192;2022-12-29T09:01:21;10.70;99.90
18103;DHT22;9178;51.120;6.192;2022-12-29T09:03:48;10.80;99.90
18103;DHT22;9178;51.120;6.192;2022-12-29T09:06:15;10.80;99.90
18103;DHT22;9178;51.120;6.192;2022-12-29T09:08:42;10.90;99.90
18103;DHT22;9178;51.120;6.192;2022-12-29T09:11:12;10.90;99.90
18103;DHT22;9178;51.120;6.192;2022-12-29T09:13:39;10.90;99.90
18103;DHT22;9178;51.120;6.192;2022-12-29T09:16:06;10.90;99.90
18103;DHT22;9178;51.120;6.192;2022-12-29T09:18:35;10.90;99.90
18103;DHT22;9178;51.120;6.192;2022-12-29T09:21:03;10.90;99.90
18103;DHT22;9178;51.120;6.192;2022-12-29T09:23:31;10.80;99.90
18103;DHT22;9178;51.120;6.192;2022-12-29T09:25:58;10.90;99.90
18103;DHT22;9178;51.120;6.192;2022-12-29T09:28:26;10.90;99.90
18103;DHT22;9178;51.120;6.192;2022-12-29T09:30:54;10.90;99.90
18103;DHT22;9178;51.120;6.192;2022-12-29T09:33:21;10.90;99.90
18103;DHT22;9178;51.120;6.192;2022-12-29T09:35:52;10.90;99.90
18103;DHT22;9178;51.120;6.192;2022-12-29T09:38:20;11.00;99.90
18103;DHT22;9178;51.120;6.192;2022-12-29T09:40:50;10.90;99.90
18103;DHT22;9178;51.120;6.192;2022-12-29T09:43:44;10.90;99.90
18103;DHT22;9178;51.120;6.192;2022-12-29T09:46:18;10.90;99.90
18103;DHT22;9178;51.120;6.192;2022-12-29T09:48:51;11.00;99.90
18103;DHT22;9178;51.120;6.192;2022-12-29T09:51:23;11.00;99.90
18103;DHT22;9178;51.120;6.192;2022-12-29T09:53:54;11.00;99.90
18103;DHT22;9178;51.120;6.192;2022-12-29T09:56:24;11.00;99.90
18103;DHT22;9178;51.120;6.192;2022-12-29T09:58:54;11.00;99.90
18103;DHT22;9178;51.120;6.192;2022-12-29T10:01:29;10.90;99.90
18103;DHT22;9178;51.120;6.192;2022-12-29T10:03:57;11.00;99.90
18103;DHT22;9178;51.120;6.192;2022-12-29T10:06:29;11.00;99.90
18103;DHT22;9178;51.120;6.192;2022-12-29T10:09:03;11.00;99.90
18103;DHT22;9178;51.120;6.192;2022-12-29T10:11:51;11.00;99.90
18103;DHT22;9178;51.120;6.192;2022-12-29T10:14:33;11.10;99.90
18103;DHT22;9178;51.120;6.192;2022-12-29T10:17:12;11.20;99.90
18103;DHT22;9178;51.120;6.192;2022-12-29T10:19:53;11.30;99.90
18103;DHT22;9178;51.120;6.192;2022-12-29T10:22:32;11.30;99.90
18103;DHT22;9178;51.120;6.192;2022-12-29T10:25:07;11.30;99.90
18103;DHT22;9178;51.120;6.192;2022-12-29T10:27:37;11.40;99.90
18103;DHT22;9178;51.120;6.192;2022-12-29T10:30:05;11.50;99.90
18103;DHT22;9178;51.120;6.192;2022-12-29T10:32:36;11.70;99.90
18103;DHT22;9178;51.120;6.192;2022-12-29T10:35:09;11.90;99.90
18103;DHT22;9178;51.120;6.192;2022-12-29T10:37:43;11.90;99.90
18103;DHT22;9178;51.120;6.192;2022-12-29T10:40:18;11.90;99.90
18103;DHT22;9178;51.120;6.192;2022-12-29T10:42:50;12.00;99.90
18103;DHT22;9178;51.120;6.192;2022-12-29T10:45:18;12.10;99.90
18103;DHT22;9178;51.120;6.192;2022-12-29T10:47:53;12.10;99.90
18103;DHT22;9178;51.120;6.192;2022-12-29T10:50:20;12.30;99.90
18103;DHT22;9178;51.120;6.192;2022-12-29T10:52:49;12.40;99.90
18103;DHT22;9178;51.120;6.192;2022-12-29T10:55:21;12.40;99.90
18103;DHT22;9178;51.120;6.192;2022-12-29T10:57:48;12.30;99.90
18103;DHT22;9178;51.120;6.192;2022-12-29T11:00:18;12.20;99.90
18103;DHT22;9178;51.120;6.192;2022-12-29T11:02:54;12.10;99.90
18103;DHT22;9178;51.120;6.192;2022-12-29T11:05:32;12.10;99.90
18103;DHT22;9178;51.120;6.192;2022-12-29T11:08:04;12.00;99.90
18103;DHT22;9178;51.120;6.192;2022-12-29T11:10:37;11.90;99.90
18103;DHT22;9178;51.120;6.192;2022-12-29T11:13:14;11.90;99.90
18103;DHT22;9178;51.120;6.192;2022-12-29T11:15:43;11.80;99.90
18103;DHT22;9178;51.120;6.192;2022-12-29T11:18:18;11.70;99.90
18103;DHT22;9178;51.120;6.192;2022-12-29T11:20:45;11.60;99.90
18103;DHT22;9178;51.120;6.192;2022-12-29T11:23:24;11.60;99.90
18103;DHT22;9178;51.120;6.192;2022-12-29T11:26:17;11.60;99.90
18103;DHT22;9178;51.120;6.192;2022-12-29T11:28:46;11.50;99.90
18103;DHT22;9178;51.120;6.192;2022-12-29T11:31:16;11.50;99.90
18103;DHT22;9178;51.120;6.192;2022-12-29T11:33:44;11.50;99.90
18103;DHT22;9178;51.120;6.192;2022-12-29T11:36:13;11.50;99.90
18103;DHT22;9178;51.120;6.192;2022-12-29T11:38:47;11.50;99.90
18103;DHT22;9178;51.120;6.192;2022-12-29T11:41:21;11.50;99.90
18103;DHT22;9178;51.120;6.192;2022-12-29T11:43:49;11.40;99.90
18103;DHT22;9178;51.120;6.192;2022-12-29T11:46:19;11.50;99.90
18103;DHT22;9178;51.120;6.192;2022-12-29T11:48:47;11.40;99.90
18103;DHT22;9178;51.120;6.192;2022-12-29T11:51:21;11.40;99.90
18103;DHT22;9178;51.120;6.192;2022-12-29T11:53:52;11.40;99.90
18103;DHT22;9178;51.120;6.192;2022-12-29T11:56:31;11.40;99.90
18103;DHT22;9178;51.120;6.192;2022-12-29T11:59:24;11.30;99.90
18103;DHT22;9178;51.120;6.192;2022-12-29T12:01:51;11.30;99.90
18103;DHT22;9178;51.120;6.192;2022-12-29T12:04:21;11.30;99.90
18103;DHT22;9178;51.120;6.192;2022-12-29T12:06:57;11.30;99.90
18103;DHT22;9178;51.120;6.192;2022-12-29T12:09:30;11.30;99.90
18103;DHT22;9178;51.120;6.192;2022-12-29T12:11:59;11.30;99.90
18103;DHT22;9178;51.120;6.192;2022-12-29T12:14:31;11.30;99.90
18103;DHT22;9178;51.120;6.192;2022-12-29T12:17:03;11.20;99.90
18103;DHT22;9178;51.120;6.192;2022-12-29T12:19:33;11.20;99.90
18103;DHT22;9178;51.120;6.192;2022-12-29T12:22:07;11.20;99.90
18103;DHT22;9178;51.120;6.192;2022-12-29T12:24:42;11.20;99.90
18103;DHT22;9178;51.120;6.192;2022-12-29T12:27:15;11.30;99.90
18103;DHT22;9178;51.120;6.192;2022-12-29T12:29:50;11.20;99.90
18103;DHT22;9178;51.120;6.192;2022-12-29T12:32:20;11.20;99.90
18103;DHT22;9178;51.120;6.192;2022-12-29T12:34:49;11.20;99.90
18103;DHT22;9178;51.120;6.192;2022-12-29T12:37:37;11.20;99.90
18103;DHT22;9178;51.120;6.192;2022-12-29T12:40:34;11.10;99.90
18103;DHT22;9178;51.120;6.192;2022-12-29T12:43:18;11.10;99.90
18103;DHT22;9178;51.120;6.192;2022-12-29T12:45:58;11.10;99.90
18103;DHT22;9178;51.120;6.192;2022-12-29T12:48:41;11.10;99.90
18103;DHT22;9178;51.120;6.192;2022-12-29T12:51:17;11.10;99.90
18103;DHT22;9178;51.120;6.192;2022-12-29T12:53:58;11.10;99.90
18103;DHT22;9178;51.120;6.192;2022-12-29T12:56:58;11.10;99.90
18103;DHT22;9178;51.120;6.192;2022-12-29T12:59:38;11.10;99.90
18103;DHT22;9178;51.120;6.192;2022-12-29T13:02:22;11.10;99.90
18103;DHT22;9178;51.120;6.192;2022-12-29T13:08:05;11.20;99.90
18103;DHT22;9178;51.120;6.192;2022-12-29T13:10:41;11.20;99.90
18103;DHT22;9178;51.120;6.192;2022-12-29T13:16:06;11.30;99.90
18103;DHT22;9178;51.120;6.192;2022-12-29T13:18:41;11.30;99.90
18103;DHT22;9178;51.120;6.192;2022-12-29T13:21:21;11.40;99.90
18103;DHT22;9178;51.120;6.192;2022-12-29T13:23:55;11.40;99.90
18103;DHT22;9178;51.120;6.192;2022-12-29T13:26:27;11.40;99.90
18103;DHT22;9178;51.120;6.192;2022-12-29T13:28:58;11.40;99.90
18103;DHT22;9178;51.120;6.192;2022-12-29T13:31:33;11.30;99.90
18103;DHT22;9178;51.120;6.192;2022-12-29T13:34:12;11.30;99.90
18103;DHT22;9178;51.120;6.192;2022-12-29T13:36:45;11.20;99.90
18103;DHT22;9178;51.120;6.192;2022-12-29T13:39:19;11.20;99.90
18103;DHT22;9178;51.120;6.192;2022-12-29T13:41:49;11.20;99.90
18103;DHT22;9178;51.120;6.192;2022-12-29T13:44:21;11.20;99.90
18103;DHT22;9178;51.120;6.192;2022-12-29T13:46:51;11.20;99.90
18103;DHT22;9178;51.120;6.192;2022-12-29T13:49:21;11.10;99.90
18103;DHT22;9178;51.120;6.192;2022-12-29T13:51:51;11.10;99.90
18103;DHT22;9178;51.120;6.192;2022-12-29T13:54:27;11.10;99.90
18103;DHT22;9178;51.120;6.192;2022-12-29T13:57:01;11.10;99.90
18103;DHT22;9178;51.120;6.192;2022-12-29T13:59:42;11.00;99.90
18103;DHT22;9178;51.120;6.192;2022-12-29T14:02:19;11.00;99.90
18103;DHT22;9178;51.120;6.192;2022-12-29T14:04:59;11.00;99.90
18103;DHT22;9178;51.120;6.192;2022-12-29T14:07:26;10.90;99.90
18103;DHT22;9178;51.120;6.192;2022-12-29T14:09:57;10.90;99.90
18103;DHT22;9178;51.120;6.192;2022-12-29T14:12:42;11.00;99.90
18103;DHT22;9178;51.120;6.192;2022-12-29T14:15:22;11.00;99.90
18103;DHT22;9178;51.120;6.192;2022-12-29T14:18:09;11.00;99.90
18103;DHT22;9178;51.120;6.192;2022-12-29T14:20:38;10.90;99.90
18103;DHT22;9178;51.120;6.192;2022-12-29T14:23:17;10.90;99.90
18103;DHT22;9178;51.120;6.192;2022-12-29T14:25:55;10.90;99.90
18103;DHT22;9178;51.120;6.192;2022-12-29T14:28:23;10.80;99.90
18103;DHT22;9178;51.120;6.192;2022-12-29T14:30:52;10.80;99.90
18103;DHT22;9178;51.120;6.192;2022-12-29T14:33:22;10.80;99.90
18103;DHT22;9178;51.120;6.192;2022-12-29T14:35:52;10.80;99.90
18103;DHT22;9178;51.120;6.192;2022-12-29T14:38:24;10.80;99.90
18103;DHT22;9178;51.120;6.192;2022-12-29T14:40:53;10.80;99.90
18103;DHT22;9178;51.120;6.192;2022-12-29T14:43:39;10.80;99.90
18103;DHT22;9178;51.120;6.192;2022-12-29T14:46:08;10.70;99.90
18103;DHT22;9178;51.120;6.192;2022-12-29T14:48:39;10.70;99.90
18103;DHT22;9178;51.120;6.192;2022-12-29T14:51:18;10.70;99.90
18103;DHT22;9178;51.120;6.192;2022-12-29T14:53:48;10.70;99.90
18103;DHT22;9178;51.120;6.192;2022-12-29T14:56:16;10.60;99.90
18103;DHT22;9178;51.120;6.192;2022-12-29T14:58:50;10.60;99.90
18103;DHT22;9178;51.120;6.192;2022-12-29T15:01:22;10.60;99.90
18103;DHT22;9178;51.120;6.192;2022-12-29T15:03:54;10.60;99.90
18103;DHT22;9178;51.120;6.192;2022-12-29T15:06:24;10.50;99.90
18103;DHT22;9178;51.120;6.192;2022-12-29T15:08:59;10.40;99.90
18103;DHT22;9178;51.120;6.192;2022-12-29T15:11:41;10.30;99.90
18103;DHT22;9178;51.120;6.192;2022-12-29T15:14:29;10.10;99.90
18103;DHT22;9178;51.120;6.192;2022-12-29T15:16:56;10.00;99.90
18103;DHT22;9178;51.120;6.192;2022-12-29T15:19:25;10.00;99.90
18103;DHT22;9178;51.120;6.192;2022-12-29T15:21:53;9.90;99.90
18103;DHT22;9178;51.120;6.192;2022-12-29T15:24:20;9.90;99.90
18103;DHT22;9178;51.120;6.192;2022-12-29T15:26:49;9.90;99.90
18103;DHT22;9178;51.120;6.192;2022-12-29T15:29:36;9.80;99.90
18103;DHT22;9178;51.120;6.192;2022-12-29T15:32:19;9.80;99.90
18103;DHT22;9178;51.120;6.192;2022-12-29T15:34:50;9.80;99.90
18103;DHT22;9178;51.120;6.192;2022-12-29T15:37:22;9.70;99.90
18103;DHT22;9178;51.120;6.192;2022-12-29T15:39:50;9.70;99.90
18103;DHT22;9178;51.120;6.192;2022-12-29T15:42:33;9.70;99.90
18103;DHT22;9178;51.120;6.192;2022-12-29T15:45:06;9.70;99.90
18103;DHT22;9178;51.120;6.192;2022-12-29T15:47:34;9.70;99.90
18103;DHT22;9178;51.120;6.192;2022-12-29T15:50:05;9.70;99.90
18103;DHT22;9178;51.120;6.192;2022-12-29T15:52:33;9.60;99.90
18103;DHT22;9178;51.120;6.192;2022-12-29T15:55:01;9.60;99.90
18103;DHT22;9178;51.120;6.192;2022-12-29T15:57:30;9.50;99.90
18103;DHT22;9178;51.120;6.192;2022-12-29T15:59:59;9.60;99.90
18103;DHT22;9178;51.120;6.192;2022-12-29T16:02:26;9.60;99.90
18103;DHT22;9178;51.120;6.192;2022-12-29T16:04:54;9.60;99.90
18103;DHT22;9178;51.120;6.192;2022-12-29T16:07:27;9.60;99.90
18103;DHT22;9178;51.120;6.192;2022-12-29T16:09:55;9.70;99.90
18103;DHT22;9178;51.120;6.192;2022-12-29T16:12:24;9.70;99.90
18103;DHT22;9178;51.120;6.192;2022-12-29T16:14:55;9.70;99.90
18103;DHT22;9178;51.120;6.192;2022-12-29T16:17:24;9.70;99.90
18103;DHT22;9178;51.120;6.192;2022-12-29T16:19:55;9.70;99.90